Time;durP1;ratioP1;P1;durP2;ratioP2;P2;SDS_P1;SDS_P2;PMS_P1;PMS_P2;Temp;Humidity;BMP_temperature;BMP_pressure;BME280_temperature;BME280_humidity;BME280_pressure;Samples;Min_cycle;Max_cycle;Signal;HPM_P1;HPM_P2
2022/09/03 00:01:57;;;;;;;5.80;1.90;;;11.20;78.90;;;;;;5095399;28;20492;-81
2022/09/03 00:04:36;;;;;;;3.25;1.75;;;11.10;79.20;;;;;;5095144;28;20568;-75
2022/09/03 00:07:07;;;;;;;2.25;2.05;;;11.10;79.50;;;;;;5093881;28;20103;-81
2022/09/03 00:09:42;;;;;;;3.50;2.10;;;11.10;79.30;;;;;;5095126;28;20427;-81
2022/09/03 00:12:30;;;;;;;2.95;2.67;;;11.00;80.30;;;;;;5095056;28;20016;-74
2022/09/03 00:14:59;;;;;;;3.33;1.90;;;10.90;81.90;;;;;;5095150;28;20024;-81
2022/09/03 00:17:31;;;;;;;4.57;1.70;;;10.90;83.60;;;;;;5093583;28;20401;-74
2022/09/03 00:20:20;;;;;;;2.45;2.22;;;10.80;85.30;;;;;;5093812;28;20016;-80
2022/09/03 00:22:50;;;;;;;4.15;1.98;;;10.80;85.60;;;;;;5094802;28;20032;-81
2022/09/03 00:25:25;;;;;;;4.88;2.20;;;10.80;83.80;;;;;;5093832;28;20020;-74
2022/09/03 00:27:55;;;;;;;5.32;2.13;;;10.80;82.10;;;;;;5092865;28;20154;-74
2022/09/03 00:30:23;;;;;;;2.42;2.05;;;10.70;81.30;;;;;;5094283;28;20457;-74
2022/09/03 00:32:56;;;;;;;4.35;2.15;;;10.70;81.10;;;;;;5094553;28;20016;-74
2022/09/03 00:35:30;;;;;;;5.13;1.80;;;10.70;81.20;;;;;;5094535;28;20030;-81
2022/09/03 00:37:57;;;;;;;2.38;2.13;;;10.70;81.70;;;;;;5093183;28;20020;-74
2022/09/03 00:41:05;;;;;;;2.45;1.90;;;10.60;82.40;;;;;;5110338;28;20485;-80
2022/09/03 00:44:01;;;;;;;2.47;2.08;;;10.60;83.90;;;;;;5094499;28;20032;-74
2022/09/03 00:47:04;;;;;;;3.30;2.15;;;10.50;86.00;;;;;;5093201;28;20078;-81
2022/09/03 00:50:04;;;;;;;4.07;2.70;;;10.50;85.40;;;;;;5094388;28;20039;-74
2022/09/03 00:52:44;;;;;;;5.20;1.83;;;10.50;86.20;;;;;;5094121;28;20032;-81
2022/09/03 00:55:32;;;;;;;2.75;1.60;;;10.50;85.10;;;;;;5093107;28;20380;-74
2022/09/03 00:58:28;;;;;;;2.78;1.80;;;10.50;84.30;;;;;;5094272;28;20545;-81
2022/09/03 01:00:54;;;;;;;3.92;1.83;;;10.50;84.30;;;;;;5093080;28;20375;-81
2022/09/03 01:03:59;;;;;;;2.75;2.10;;;10.40;84.20;;;;;;5092588;28;20073;-80
2022/09/03 01:06:48;;;;;;;4.13;1.70;;;10.40;83.30;;;;;;5092768;28;20043;-80
2022/09/03 01:09:20;;;;;;;4.50;2.20;;;10.40;83.30;;;;;;5092520;28;20059;-80
2022/09/03 01:11:48;;;;;;;3.40;1.90;;;10.40;83.10;;;;;;5092848;28;20028;-80
2022/09/03 01:14:38;;;;;;;3.33;1.65;;;10.40;83.40;;;;;;5093804;28;20016;-81
2022/09/03 01:17:27;;;;;;;3.72;2.20;;;10.40;83.90;;;;;;5094157;28;20027;-81
2022/09/03 01:20:08;;;;;;;4.25;1.90;;;10.30;84.80;;;;;;5092597;28;20016;-80
2022/09/03 01:22:58;;;;;;;3.85;2.50;;;10.30;87.60;;;;;;5093829;28;20028;-74
2022/09/03 01:25:48;;;;;;;2.30;2.10;;;10.30;87.90;;;;;;5093817;28;20024;-74
2022/09/03 01:28:47;;;;;;;3.92;1.95;;;10.30;91.70;;;;;;5093742;28;20115;-80
2022/09/03 01:31:34;;;;;;;3.60;1.92;;;10.20;92.00;;;;;;5091689;28;20020;-81
2022/09/03 01:34:17;;;;;;;4.50;2.00;;;10.20;91.50;;;;;;5092938;28;20066;-81
2022/09/03 01:36:59;;;;;;;2.97;2.22;;;10.20;92.20;;;;;;5093113;28;20382;-74
2022/09/03 01:39:43;;;;;;;2.80;2.17;;;10.10;92.80;;;;;;5092503;28;20039;-74
2022/09/03 01:42:39;;;;;;;3.15;2.45;;;10.10;96.40;;;;;;5092863;28;20027;-74
2022/09/03 01:45:18;;;;;;;3.17;2.00;;;10.00;97.70;;;;;;5091709;28;20504;-74
2022/09/03 01:47:55;;;;;;;3.28;2.00;;;10.00;99.60;;;;;;5093216;28;20031;-74
2022/09/03 01:50:25;;;;;;;2.83;2.42;;;9.90;99.50;;;;;;5092283;28;20065;-74
2022/09/03 01:53:09;;;;;;;5.82;2.25;;;9.90;99.90;;;;;;5093451;28;20023;-74
2022/09/03 01:55:56;;;;;;;5.75;2.55;;;9.80;99.90;;;;;;5092197;28;20358;-74
2022/09/03 01:58:48;;;;;;;4.60;2.53;;;9.80;99.90;;;;;;5093226;28;20031;-74
2022/09/03 02:01:27;;;;;;;2.78;2.20;;;9.70;99.90;;;;;;5082878;28;20032;-74
2022/09/03 02:03:58;;;;;;;5.72;2.05;;;9.70;99.90;;;;;;5091823;28;20051;-80
2022/09/03 02:06:24;;;;;;;6.35;2.20;;;9.70;99.90;;;;;;5093450;28;20052;-74
2022/09/03 02:08:50;;;;;;;3.58;2.00;;;9.70;99.90;;;;;;5108712;28;20120;-74
2022/09/03 02:11:16;;;;;;;3.25;2.60;;;9.70;99.90;;;;;;5093328;28;20020;-81
2022/09/03 02:13:47;;;;;;;4.82;2.38;;;9.70;99.90;;;;;;5091832;28;20024;-74
2022/09/03 02:16:20;;;;;;;2.70;2.00;;;9.60;99.90;;;;;;5093361;28;20027;-80
2022/09/03 02:18:50;;;;;;;3.70;2.35;;;9.70;99.90;;;;;;5093034;28;20039;-75
2022/09/03 02:21:19;;;;;;;4.85;2.30;;;9.70;99.90;;;;;;5093315;28;20008;-74
2022/09/03 02:23:46;;;;;;;3.15;2.17;;;9.70;99.90;;;;;;5093016;28;20020;-80
2022/09/03 02:26:17;;;;;;;3.60;2.10;;;9.70;99.90;;;;;;5091917;28;20020;-81
2022/09/03 02:28:43;;;;;;;3.45;2.40;;;9.70;99.90;;;;;;5108664;28;20493;-80
2022/09/03 02:31:09;;;;;;;4.50;2.33;;;9.70;99.90;;;;;;5091692;28;20020;-73
2022/09/03 02:33:41;;;;;;;4.53;3.08;;;9.70;99.90;;;;;;5091798;28;20020;-81
2022/09/03 02:36:10;;;;;;;3.17;2.58;;;9.60;99.90;;;;;;5091703;28;20030;-74
2022/09/03 02:38:36;;;;;;;2.83;2.15;;;9.60;99.90;;;;;;5091555;28;20089;-74
2022/09/03 02:41:03;;;;;;;3.90;2.30;;;9.60;99.90;;;;;;5091679;28;20418;-80
2022/09/03 02:43:40;;;;;;;1.90;1.80;;;9.60;99.90;;;;;;5092843;28;20055;-74
2022/09/03 02:46:11;;;;;;;4.13;2.28;;;9.70;99.90;;;;;;5093109;28;20028;-74
2022/09/03 02:48:36;;;;;;;5.75;2.90;;;9.60;99.90;;;;;;5092763;28;20040;-74
2022/09/03 02:51:02;;;;;;;6.70;3.10;;;9.60;99.90;;;;;;5091632;28;20107;-80
2022/09/03 02:53:28;;;;;;;3.83;2.40;;;9.60;99.90;;;;;;5096267;28;20147;-74
2022/09/03 02:55:59;;;;;;;5.05;2.80;;;9.50;99.90;;;;;;5096706;28;20059;-80
2022/09/03 02:58:25;;;;;;;5.20;2.88;;;9.50;99.90;;;;;;5096493;28;20048;-80
2022/09/03 03:00:52;;;;;;;3.08;2.63;;;9.50;99.90;;;;;;5095314;28;20022;-74
2022/09/03 03:03:18;;;;;;;3.40;2.42;;;9.50;99.90;;;;;;5094938;28;20016;-74
2022/09/03 03:05:46;;;;;;;4.47;2.55;;;9.50;99.90;;;;;;5096388;28;20077;-81
2022/09/03 03:08:13;;;;;;;7.63;3.78;;;9.50;99.90;;;;;;5111977;28;20036;-80
2022/09/03 03:10:41;;;;;;;3.95;2.40;;;9.50;99.90;;;;;;5096330;28;20099;-75
2022/09/03 03:13:07;;;;;;;5.18;2.97;;;9.40;99.90;;;;;;5096225;28;20014;-80
2022/09/03 03:15:32;;;;;;;3.83;2.53;;;9.40;99.90;;;;;;5096215;28;20028;-80
2022/09/03 03:17:58;;;;;;;4.43;3.05;;;9.40;99.90;;;;;;5094888;28;20065;-80
2022/09/03 03:20:24;;;;;;;5.10;2.60;;;9.40;99.90;;;;;;5094809;28;20020;-80
2022/09/03 03:22:50;;;;;;;6.22;3.03;;;9.50;99.90;;;;;;5111775;28;20024;-74
2022/09/03 03:25:15;;;;;;;4.40;2.78;;;9.40;99.90;;;;;;5096024;28;20174;-80
2022/09/03 03:27:42;;;;;;;4.25;2.58;;;9.40;99.90;;;;;;5111818;28;20069;-80
2022/09/03 03:30:09;;;;;;;4.35;3.10;;;9.40;99.90;;;;;;5095759;28;20064;-75
2022/09/03 03:32:38;;;;;;;5.20;3.03;;;9.30;99.90;;;;;;5095911;28;20016;-74
2022/09/03 03:35:05;;;;;;;3.63;2.80;;;9.30;99.90;;;;;;5094383;28;20035;-74
2022/09/03 03:37:31;;;;;;;7.43;3.30;;;9.30;99.90;;;;;;5095750;28;20017;-74
2022/09/03 03:39:57;;;;;;;3.55;3.25;;;9.20;99.90;;;;;;5095568;28;20038;-74
2022/09/03 03:42:23;;;;;;;3.97;3.13;;;9.20;99.90;;;;;;5095716;28;20020;-81
2022/09/03 03:44:48;;;;;;;6.38;3.03;;;9.10;99.90;;;;;;5094226;28;20393;-80
2022/09/03 03:47:15;;;;;;;6.70;3.60;;;9.10;99.90;;;;;;5095588;28;20059;-80
2022/09/03 03:49:42;;;;;;;2.90;2.65;;;9.10;99.90;;;;;;5094175;28;20040;-74
2022/09/03 03:52:08;;;;;;;5.07;3.35;;;9.10;99.90;;;;;;5111420;28;20070;-74
2022/09/03 03:54:33;;;;;;;3.28;2.83;;;9.00;99.90;;;;;;5111037;28;20024;-80
2022/09/03 03:56:59;;;;;;;5.25;3.33;;;9.00;99.90;;;;;;5095403;28;20020;-74
2022/09/03 03:59:25;;;;;;;6.72;3.50;;;9.00;99.90;;;;;;5093985;28;20028;-80
2022/09/03 04:01:54;;;;;;;3.33;2.80;;;9.00;99.90;;;;;;5094129;28;20115;-74
2022/09/03 04:04:19;;;;;;;4.03;3.22;;;9.00;99.90;;;;;;5093773;28;20055;-80
2022/09/03 04:06:45;;;;;;;8.82;3.30;;;9.00;99.90;;;;;;5095201;28;20098;-74
2022/09/03 04:09:11;;;;;;;6.03;3.33;;;9.00;99.90;;;;;;5094976;28;20032;-80
2022/09/03 04:11:36;;;;;;;6.60;3.50;;;8.90;99.90;;;;;;5093697;28;20028;-74
2022/09/03 04:14:02;;;;;;;6.15;3.58;;;9.00;99.90;;;;;;5110760;28;20020;-80
2022/09/03 04:16:28;;;;;;;6.32;3.25;;;9.10;99.90;;;;;;5095030;28;20064;-74
2022/09/03 04:18:55;;;;;;;7.55;3.30;;;9.10;99.90;;;;;;5094887;28;20028;-74
2022/09/03 04:21:23;;;;;;;3.83;2.97;;;9.20;99.90;;;;;;5094736;28;20020;-80
2022/09/03 04:23:50;;;;;;;5.38;3.25;;;9.20;99.90;;;;;;5094798;28;20035;-74
2022/09/03 04:26:22;;;;;;;6.05;3.60;;;9.30;99.90;;;;;;5094696;28;20366;-74
2022/09/03 04:28:48;;;;;;;5.67;2.90;;;9.30;99.90;;;;;;5093671;28;20093;-80
2022/09/03 04:31:15;;;;;;;5.28;3.58;;;9.30;99.90;;;;;;5093363;28;20258;-80
2022/09/03 04:33:41;;;;;;;5.30;3.53;;;9.30;99.90;;;;;;5093394;28;20038;-80
2022/09/03 04:36:09;;;;;;;5.82;3.03;;;9.30;99.90;;;;;;5093294;28;20028;-74
2022/09/03 04:38:37;;;;;;;5.95;3.15;;;9.40;99.90;;;;;;5093330;28;20020;-81
2022/09/03 04:41:04;;;;;;;4.20;3.40;;;9.40;99.90;;;;;;5094524;28;20383;-80
2022/09/03 04:43:30;;;;;;;6.68;3.55;;;9.40;99.90;;;;;;5093232;28;20165;-74
2022/09/03 04:46:01;;;;;;;7.40;3.28;;;9.40;99.90;;;;;;5091445;28;20016;-80
2022/09/03 04:48:28;;;;;;;7.10;3.25;;;9.50;99.90;;;;;;5092328;28;20032;-74
2022/09/03 04:51:04;;;;;;;5.35;3.30;;;9.50;99.90;;;;;;5092213;28;20027;-74
2022/09/03 04:53:32;;;;;;;4.95;3.60;;;9.60;99.90;;;;;;5092369;28;20028;-81
2022/09/03 04:55:58;;;;;;;6.90;3.55;;;9.70;99.90;;;;;;5093365;28;20030;-74
2022/09/03 04:58:23;;;;;;;4.70;3.20;;;9.80;99.90;;;;;;5092240;28;20028;-74
2022/09/03 05:00:49;;;;;;;6.13;3.38;;;9.90;99.90;;;;;;5092215;28;20024;-80
2022/09/03 05:03:15;;;;;;;9.18;3.83;;;10.10;99.90;;;;;;5094004;28;20107;-81
2022/09/03 05:05:41;;;;;;;5.65;4.18;;;10.30;99.90;;;;;;5094180;28;20024;-80
2022/09/03 05:08:07;;;;;;;8.55;3.45;;;10.50;99.90;;;;;;5094055;28;20055;-75
2022/09/03 05:10:33;;;;;;;7.45;3.80;;;10.60;99.90;;;;;;5093923;28;20442;-74
2022/09/03 05:13:02;;;;;;;5.80;3.72;;;10.80;99.90;;;;;;5092632;28;20409;-74
2022/09/03 05:15:30;;;;;;;7.10;3.53;;;11.00;99.90;;;;;;5092199;28;20042;-81
2022/09/03 05:18:03;;;;;;;6.70;3.38;;;11.20;99.90;;;;;;5092122;28;20020;-81
2022/09/03 05:20:29;;;;;;;8.00;3.42;;;11.30;99.90;;;;;;5093228;28;20036;-81
2022/09/03 05:22:56;;;;;;;5.57;3.70;;;11.40;99.90;;;;;;5093146;28;20024;-74
2022/09/03 05:25:23;;;;;;;5.38;3.53;;;11.60;99.90;;;;;;5091650;28;20024;-75
2022/09/03 05:27:49;;;;;;;4.53;3.45;;;11.70;99.90;;;;;;5091731;28;20027;-81
2022/09/03 05:30:15;;;;;;;3.28;2.97;;;11.80;99.90;;;;;;5091540;28;20032;-81
2022/09/03 05:32:41;;;;;;;4.53;3.08;;;11.90;99.90;;;;;;5093349;28;20449;-79
2022/09/03 05:35:09;;;;;;;6.50;3.60;;;12.00;99.90;;;;;;5093702;28;20020;-79
2022/09/03 05:37:36;;;;;;;4.85;3.35;;;12.10;99.90;;;;;;5093638;28;20028;-72
2022/09/03 05:40:02;;;;;;;4.82;3.38;;;12.20;99.90;;;;;;5093532;28;20028;-72
2022/09/03 05:42:27;;;;;;;6.55;3.47;;;12.30;99.90;;;;;;5093551;28;20397;-72
2022/09/03 05:44:53;;;;;;;7.07;3.67;;;12.40;99.90;;;;;;5093408;28;20028;-72
2022/09/03 05:47:19;;;;;;;6.40;3.55;;;12.40;99.90;;;;;;5092042;28;20035;-72
2022/09/03 05:49:44;;;;;;;5.72;3.38;;;12.50;99.90;;;;;;5092126;28;20450;-79
2022/09/03 05:52:10;;;;;;;4.53;3.60;;;12.50;99.90;;;;;;5093311;28;20032;-73
2022/09/03 05:54:36;;;;;;;4.60;3.08;;;12.60;99.90;;;;;;5093364;28;20032;-80
2022/09/03 05:57:01;;;;;;;7.30;3.45;;;12.60;99.90;;;;;;5093137;28;20043;-79
2022/09/03 05:59:27;;;;;;;5.35;3.60;;;12.70;99.90;;;;;;5092138;28;20473;-73
2022/09/03 06:01:53;;;;;;;7.07;3.55;;;12.70;99.90;;;;;;5093233;28;20047;-79
2022/09/03 06:04:19;;;;;;;8.98;4.00;;;12.70;99.90;;;;;;5092894;28;20526;-79
2022/09/03 06:06:46;;;;;;;6.05;3.47;;;12.90;99.90;;;;;;5093044;28;20020;-74
2022/09/03 06:09:17;;;;;;;4.72;3.03;;;13.00;99.90;;;;;;5092995;28;20109;-81
2022/09/03 06:11:43;;;;;;;4.68;3.17;;;13.00;99.90;;;;;;5108945;28;20020;-74
2022/09/03 06:14:11;;;;;;;3.90;3.38;;;13.20;99.90;;;;;;5093225;28;20107;-81
2022/09/03 06:16:51;;;;;;;5.70;3.40;;;13.20;99.90;;;;;;5108812;28;20027;-74
2022/09/03 06:19:18;;;;;;;4.60;3.22;;;13.40;99.90;;;;;;5093330;28;20062;-74
2022/09/03 06:21:45;;;;;;;7.10;3.40;;;13.40;99.90;;;;;;5093054;28;20020;-75
2022/09/03 06:24:16;;;;;;;5.20;3.13;;;13.40;99.90;;;;;;5108801;28;20081;-82
2022/09/03 06:26:42;;;;;;;6.40;4.55;;;13.50;99.90;;;;;;5092620;28;20527;-74
2022/09/03 06:29:08;;;;;;;5.82;3.75;;;13.70;99.90;;;;;;5095648;28;20501;-82
2022/09/03 06:31:34;;;;;;;5.45;3.50;;;13.70;99.90;;;;;;5096937;28;20026;-81
2022/09/03 06:34:00;;;;;;;5.65;3.30;;;13.80;99.90;;;;;;5095689;28;20031;-83
2022/09/03 06:36:26;;;;;;;8.80;4.55;;;13.80;99.90;;;;;;5097036;28;20403;-81
2022/09/03 06:38:54;;;;;;;3.88;3.05;;;14.10;99.90;;;;;;5095469;28;20122;-74
2022/09/03 06:41:26;;;;;;;5.10;3.95;;;14.20;99.90;;;;;;5096946;28;20052;-74
2022/09/03 06:43:58;;;;;;;6.03;3.25;;;14.30;99.90;;;;;;5095443;28;20028;-74
2022/09/03 06:46:24;;;;;;;6.60;3.72;;;14.40;99.90;;;;;;5096900;28;20024;-75
2022/09/03 06:48:50;;;;;;;5.00;3.67;;;14.50;99.90;;;;;;5096555;28;20114;-83
2022/09/03 06:51:18;;;;;;;4.63;3.50;;;14.50;99.90;;;;;;5095382;28;20028;-82
2022/09/03 06:53:47;;;;;;;5.55;4.30;;;14.60;99.90;;;;;;5096579;28;20030;-82
2022/09/03 06:56:15;;;;;;;4.93;3.25;;;14.80;99.90;;;;;;5096591;28;20024;-74
2022/09/03 06:58:45;;;;;;;5.95;3.25;;;14.90;99.90;;;;;;5096312;28;20032;-82
2022/09/03 07:01:13;;;;;;;6.75;3.80;;;14.90;99.90;;;;;;5112199;28;20114;-82
2022/09/03 07:03:41;;;;;;;4.40;3.90;;;15.00;99.90;;;;;;5094930;28;20040;-75
2022/09/03 07:06:12;;;;;;;4.70;3.35;;;15.00;99.90;;;;;;5095183;28;20024;-83
2022/09/03 07:08:38;;;;;;;8.33;4.07;;;15.00;99.90;;;;;;5096325;28;20066;-74
2022/09/03 07:11:09;;;;;;;5.93;4.00;;;14.90;99.90;;;;;;5096231;28;20266;-76
2022/09/03 07:13:38;;;;;;;6.78;3.63;;;14.90;99.90;;;;;;5096344;28;20027;-82
2022/09/03 07:16:09;;;;;;;5.38;3.80;;;15.00;99.90;;;;;;5094926;28;20034;-81
2022/09/03 07:18:35;;;;;;;7.43;4.10;;;15.20;99.90;;;;;;5094710;28;20028;-81
2022/09/03 07:21:18;;;;;;;4.28;3.38;;;15.50;99.90;;;;;;5094846;28;20028;-75
2022/09/03 07:23:45;;;;;;;5.40;3.40;;;15.80;99.90;;;;;;5095877;28;20110;-75
2022/09/03 07:26:32;;;;;;;5.38;3.28;;;15.90;99.90;;;;;;5096071;28;20449;-75
2022/09/03 07:29:01;;;;;;;7.10;3.40;;;16.00;96.40;;;;;;5095637;28;20469;-81
2022/09/03 07:31:30;;;;;;;4.72;3.22;;;15.80;97.20;;;;;;5094554;28;20059;-74
2022/09/03 07:33:58;;;;;;;4.95;4.05;;;15.70;98.20;;;;;;5095814;28;20496;-81
2022/09/03 07:36:25;;;;;;;7.45;4.10;;;15.80;99.90;;;;;;5095746;28;20099;-81
2022/09/03 07:38:54;;;;;;;5.05;4.05;;;15.70;99.90;;;;;;5093831;28;20120;-81
2022/09/03 07:41:21;;;;;;;4.78;3.25;;;15.80;99.90;;;;;;5094370;28;20031;-81
2022/09/03 07:43:47;;;;;;;5.22;3.53;;;15.70;99.90;;;;;;5094627;28;20042;-74
2022/09/03 07:46:24;;;;;;;4.97;3.72;;;15.70;99.90;;;;;;5094339;28;20103;-75
2022/09/03 07:48:54;;;;;;;7.43;4.40;;;15.70;99.90;;;;;;5095496;28;20560;-74
2022/09/03 07:51:25;;;;;;;4.57;3.60;;;15.70;99.90;;;;;;5094298;28;20054;-81
2022/09/03 07:53:52;;;;;;;4.80;3.60;;;16.00;99.90;;;;;;5094133;28;20377;-81
2022/09/03 07:56:18;;;;;;;4.20;3.65;;;16.30;99.90;;;;;;5093995;28;20020;-75
2022/09/03 07:58:44;;;;;;;5.82;4.18;;;16.60;99.90;;;;;;5094084;28;20020;-81
2022/09/03 08:01:20;;;;;;;5.50;4.13;;;16.80;95.30;;;;;;5095346;28;20504;-81
2022/09/03 08:03:48;;;;;;;5.20;3.88;;;16.80;90.30;;;;;;5093884;28;20052;-75
2022/09/03 08:06:17;;;;;;;6.95;3.95;;;16.50;90.80;;;;;;5095062;28;20031;-75
2022/09/03 08:08:45;;;;;;;5.22;3.75;;;16.30;93.60;;;;;;5093637;28;20118;-81
2022/09/03 08:11:14;;;;;;;4.68;3.78;;;16.20;96.30;;;;;;5093836;28;20012;-74
2022/09/03 08:13:42;;;;;;;6.05;4.10;;;16.30;97.50;;;;;;5095051;28;20567;-82
2022/09/03 08:16:10;;;;;;;6.60;4.47;;;16.30;98.20;;;;;;5093926;28;20537;-82
2022/09/03 08:18:38;;;;;;;5.82;4.55;;;16.10;98.00;;;;;;5110620;28;20030;-75
2022/09/03 08:21:09;;;;;;;7.78;4.50;;;16.00;98.70;;;;;;5094859;28;20024;-74
2022/09/03 08:23:38;;;;;;;6.55;4.35;;;16.00;97.60;;;;;;5094820;28;20044;-82
2022/09/03 08:26:05;;;;;;;6.82;4.53;;;16.00;96.70;;;;;;5094883;28;20464;-75
2022/09/03 08:28:33;;;;;;;6.35;4.25;;;15.90;97.90;;;;;;5093246;28;20431;-82
2022/09/03 08:31:06;;;;;;;8.98;4.50;;;15.90;97.40;;;;;;5091844;28;20477;-75
2022/09/03 08:33:38;;;;;;;5.10;4.05;;;15.90;99.70;;;;;;5092535;28;20481;-83
2022/09/03 08:36:06;;;;;;;5.72;4.10;;;16.00;99.90;;;;;;5092789;28;20491;-75
2022/09/03 08:38:33;;;;;;;8.05;4.38;;;16.00;97.60;;;;;;5093694;28;20035;-82
2022/09/03 08:41:04;;;;;;;6.00;4.03;;;16.20;99.30;;;;;;5093853;28;20032;-82
2022/09/03 08:43:34;;;;;;;6.90;4.55;;;16.40;97.30;;;;;;5092412;28;20020;-74
2022/09/03 08:46:01;;;;;;;6.07;4.30;;;16.40;95.10;;;;;;5092658;28;20149;-82
2022/09/03 08:48:27;;;;;;;5.95;4.55;;;16.50;94.10;;;;;;5093080;28;20063;-82
2022/09/03 08:50:58;;;;;;;6.55;4.60;;;16.90;94.10;;;;;;5092294;28;20020;-76
2022/09/03 08:53:32;;;;;;;5.60;4.45;;;16.80;88.10;;;;;;5092911;28;20024;-83
2022/09/03 08:56:09;;;;;;;8.30;4.75;;;17.00;90.30;;;;;;5094207;28;20020;-83
2022/09/03 08:58:42;;;;;;;7.22;4.75;;;16.90;85.30;;;;;;5094273;28;20537;-75
2022/09/03 09:01:33;;;;;;;5.60;4.90;;;16.80;88.50;;;;;;5110208;28;20032;-83
2022/09/03 09:04:09;;;;;;;5.28;4.40;;;16.70;88.00;;;;;;5092678;28;20036;-75
2022/09/03 09:06:44;;;;;;;4.65;3.92;;;16.50;90.50;;;;;;5092871;28;20027;-75
2022/09/03 09:09:28;;;;;;;7.55;4.95;;;16.60;91.40;;;;;;5092525;28;20028;-82
2022/09/03 09:12:03;;;;;;;7.10;4.10;;;16.60;92.10;;;;;;5092790;28;20027;-75
2022/09/03 09:14:47;;;;;;;6.03;4.55;;;16.80;90.80;;;;;;5092605;28;20027;-83
2022/09/03 09:17:34;;;;;;;5.95;4.85;;;16.90;88.90;;;;;;5092764;28;20024;-75
2022/09/03 09:20:36;;;;;;;6.50;4.40;;;16.70;87.70;;;;;;5092549;28;20024;-75
2022/09/03 09:23:08;;;;;;;6.57;4.97;;;16.80;87.00;;;;;;5073547;28;20025;-83
2022/09/03 09:25:47;;;;;;;6.63;4.07;;;16.80;89.50;;;;;;5073508;28;20016;-83
2022/09/03 09:28:19;;;;;;;6.30;4.25;;;16.70;87.90;;;;;;5072146;28;20386;-75
2022/09/03 09:30:52;;;;;;;4.65;4.00;;;16.80;87.00;;;;;;5072035;28;20019;-82
2022/09/03 09:33:19;;;;;;;7.47;3.95;;;16.90;88.70;;;;;;5088931;28;20047;-83
2022/09/03 09:35:46;;;;;;;4.60;4.20;;;16.80;87.50;;;;;;5073214;28;20039;-75
2022/09/03 09:38:12;;;;;;;5.82;4.10;;;16.90;85.30;;;;;;5072040;28;20386;-76
2022/09/03 09:40:41;;;;;;;5.25;4.07;;;17.00;84.50;;;;;;5071827;28;20123;-82
2022/09/03 09:43:20;;;;;;;5.95;4.63;;;17.00;85.00;;;;;;5072098;28;20044;-83
2022/09/03 09:45:51;;;;;;;5.10;4.30;;;16.90;86.90;;;;;;5071841;28;20462;-82
2022/09/03 09:48:30;;;;;;;5.03;3.90;;;16.70;86.20;;;;;;5073148;28;20017;-75
2022/09/03 09:51:20;;;;;;;4.80;3.55;;;16.70;86.90;;;;;;5072991;28;20029;-83
2022/09/03 09:53:45;;;;;;;4.53;4.13;;;16.70;85.50;;;;;;5071853;28;20107;-75
2022/09/03 09:56:24;;;;;;;5.50;4.32;;;16.70;85.20;;;;;;5072970;28;20048;-82
2022/09/03 09:59:04;;;;;;;3.65;3.35;;;16.80;85.80;;;;;;5093307;28;20025;-82
2022/09/03 10:01:30;;;;;;;4.82;3.95;;;16.80;86.00;;;;;;5112988;28;20035;-82
2022/09/03 10:04:18;;;;;;;5.55;4.18;;;16.70;84.00;;;;;;5099939;28;20481;-76
2022/09/03 10:06:52;;;;;;;5.88;4.18;;;16.90;84.40;;;;;;5081909;28;20035;-75
2022/09/03 10:09:31;;;;;;;5.80;4.53;;;16.90;83.90;;;;;;5099853;28;20032;-75
2022/09/03 10:12:13;;;;;;;8.80;4.18;;;17.10;84.80;;;;;;5099857;28;20019;-75
2022/09/03 10:14:57;;;;;;;6.15;4.40;;;17.10;84.30;;;;;;5098887;28;20028;-76
2022/09/03 10:17:34;;;;;;;5.10;4.60;;;16.90;84.80;;;;;;5099890;28;20028;-75
2022/09/03 10:20:32;;;;;;;5.70;4.68;;;16.90;86.10;;;;;;5099950;28;20036;-83
2022/09/03 10:23:10;;;;;;;5.65;4.35;;;16.90;85.20;;;;;;5095155;28;20016;-82
2022/09/03 10:26:06;;;;;;;7.07;4.05;;;16.90;84.50;;;;;;5078129;28;20604;-83
2022/09/03 10:28:39;;;;;;;5.00;4.13;;;17.10;84.50;;;;;;5094990;28;20039;-83
2022/09/03 10:31:10;;;;;;;8.60;3.53;;;17.40;84.70;;;;;;5078243;28;20112;-83
2022/09/03 10:33:49;;;;;;;5.97;4.10;;;17.70;79.60;;;;;;5078171;28;20618;-75
2022/09/03 10:36:41;;;;;;;5.03;4.07;;;17.60;77.10;;;;;;5078074;28;20112;-83
2022/09/03 10:39:18;;;;;;;5.03;3.67;;;17.40;79.10;;;;;;5078112;28;20035;-83
2022/09/03 10:42:11;;;;;;;6.22;4.45;;;17.50;80.60;;;;;;5095088;28;20024;-75
2022/09/03 10:44:43;;;;;;;4.72;3.90;;;17.40;80.40;;;;;;5079479;28;20028;-76
2022/09/03 10:47:41;;;;;;;6.18;4.10;;;17.40;81.40;;;;;;5077960;28;20029;-76
2022/09/03 10:50:15;;;;;;;5.82;4.55;;;17.40;81.40;;;;;;5078051;28;20131;-83
2022/09/03 10:52:59;;;;;;;8.60;4.75;;;17.30;82.60;;;;;;5079297;28;20024;-83
2022/09/03 10:55:36;;;;;;;8.95;5.35;;;17.30;84.50;;;;;;5079434;28;20371;-76
2022/09/03 10:58:42;;;;;;;6.10;4.70;;;17.20;84.50;;;;;;5094884;28;20078;-75
2022/09/03 11:01:36;;;;;;;7.28;4.53;;;17.40;84.10;;;;;;5099549;28;20028;-75
2022/09/03 11:04:39;;;;;;;5.43;4.10;;;17.80;83.80;;;;;;5098026;28;20134;-83
2022/09/03 11:07:08;;;;;;;;;;;18.20;78.00;;;;;;5098700;28;20032;-83
2022/09/03 11:09:47;;;;;;;4.40;4.00;;;18.30;74.70;;;;;;5115034;28;19926;-76
2022/09/03 11:12:55;;;;;;;3.88;3.42;;;18.50;74.60;;;;;;5096549;28;20028;-76
2022/09/03 11:15:25;;;;;;;4.90;4.00;;;18.60;73.30;;;;;;4997750;28;20050;-77
2022/09/03 11:18:21;;;;;;;4.20;3.83;;;18.70;72.80;;;;;;5077829;28;20036;-83
2022/09/03 11:20:49;;;;;;;4.30;3.90;;;18.80;72.30;;;;;;5081974;28;20028;-83
2022/09/03 11:23:17;;;;;;;5.25;4.03;;;18.60;72.90;;;;;;5095983;28;20051;-76
2022/09/03 11:25:50;;;;;;;5.13;3.67;;;18.70;73.10;;;;;;5096035;28;20020;-76
2022/09/03 11:28:44;;;;;;;3.83;3.33;;;18.60;72.70;;;;;;5094513;28;20040;-76
2022/09/03 11:31:16;;;;;;;4.40;3.47;;;18.30;72.40;;;;;;5094605;28;20027;-76
2022/09/03 11:34:15;;;;;;;3.97;3.58;;;18.10;73.60;;;;;;5095777;28;20046;-82
2022/09/03 11:36:41;;;;;;;6.03;3.53;;;18.00;74.30;;;;;;5095715;28;20035;-83
2022/09/03 11:39:34;;;;;;;4.75;3.10;;;18.00;75.30;;;;;;5094397;28;20024;-75
2022/09/03 11:42:08;;;;;;;4.18;3.78;;;18.00;75.30;;;;;;5094230;28;20497;-75
2022/09/03 11:44:40;;;;;;;4.15;3.50;;;17.90;75.50;;;;;;5094494;28;20017;-76
2022/09/03 11:47:20;;;;;;;4.75;3.70;;;18.00;74.20;;;;;;5093554;28;20504;-83
2022/09/03 11:49:49;;;;;;;5.63;3.83;;;17.90;73.80;;;;;;5093337;28;20097;-76
2022/09/03 11:52:28;;;;;;;3.42;3.00;;;18.00;74.30;;;;;;5094658;28;20421;-83
2022/09/03 11:54:54;;;;;;;3.95;2.92;;;18.00;73.40;;;;;;5093511;28;20052;-75
2022/09/03 11:57:26;;;;;;;4.65;3.67;;;17.90;72.70;;;;;;5093261;28;20075;-76
2022/09/03 11:59:52;;;;;;;5.68;3.58;;;18.00;75.80;;;;;;5094847;28;20012;-81
2022/09/03 12:02:28;;;;;;;4.18;3.72;;;17.70;75.10;;;;;;5094971;28;20028;-73
2022/09/03 12:04:57;;;;;;;4.25;3.58;;;17.70;76.30;;;;;;5095361;28;20052;-73
2022/09/03 12:08:05;;;;;;;4.38;3.55;;;17.70;76.30;;;;;;5095186;28;20099;-80
2022/09/03 12:10:53;;;;;;;6.15;3.80;;;17.80;76.20;;;;;;5094984;28;20490;-73
2022/09/03 12:13:51;;;;;;;7.22;5.28;;;17.80;76.00;;;;;;5093737;28;20449;-74
2022/09/03 12:16:42;;;;;;;6.40;4.03;;;17.70;75.40;;;;;;5080768;28;20131;-81
2022/09/03 12:19:28;;;;;;;5.18;3.72;;;17.70;75.00;;;;;;5093672;28;20481;-81
2022/09/03 12:21:55;;;;;;;5.15;3.95;;;17.60;74.00;;;;;;5094958;28;20031;-73
2022/09/03 12:24:22;;;;;;;3.90;3.60;;;17.60;74.50;;;;;;5093569;28;20095;-81
2022/09/03 12:26:47;;;;;;;3.95;3.60;;;17.70;75.70;;;;;;5093531;28;20028;-74
2022/09/03 12:29:28;;;;;;;5.00;3.85;;;17.60;74.00;;;;;;5093218;28;20051;-81
2022/09/03 12:31:55;;;;;;;5.18;3.83;;;17.60;74.10;;;;;;5093465;28;20446;-74
2022/09/03 12:34:22;;;;;;;7.95;3.75;;;17.40;76.00;;;;;;5094553;28;20016;-82
2022/09/03 12:36:53;;;;;;;4.25;3.85;;;17.40;77.10;;;;;;5093318;28;20021;-75
2022/09/03 12:39:24;;;;;;;4.80;4.28;;;17.30;76.60;;;;;;5093067;28;20062;-82
2022/09/03 12:42:05;;;;;;;6.20;4.65;;;17.20;77.10;;;;;;5093232;28;20082;-83
2022/09/03 12:44:33;;;;;;;5.15;4.25;;;17.20;77.60;;;;;;5093105;28;20085;-75
2022/09/03 12:47:06;;;;;;;4.75;4.03;;;17.20;78.70;;;;;;5094451;28;20077;-83
2022/09/03 12:49:40;;;;;;;6.20;4.50;;;17.30;79.20;;;;;;5092905;28;20032;-82
2022/09/03 12:52:36;;;;;;;4.97;4.10;;;17.30;79.70;;;;;;5094148;28;20470;-75
2022/09/03 12:55:13;;;;;;;5.35;4.85;;;17.40;80.20;;;;;;5086528;28;20028;-75
2022/09/03 12:57:49;;;;;;;7.43;5.22;;;17.50;80.00;;;;;;5094201;28;20073;-82
2022/09/03 13:00:17;;;;;;;7.43;5.10;;;17.60;78.00;;;;;;5109921;28;20024;-82
2022/09/03 13:02:58;;;;;;;5.38;4.55;;;17.60;76.90;;;;;;5094236;28;20016;-82
2022/09/03 13:05:53;;;;;;;5.75;4.90;;;17.70;76.80;;;;;;5094309;28;20524;-75
2022/09/03 13:08:23;;;;;;;7.05;4.32;;;17.80;76.40;;;;;;5079305;28;20485;-82
2022/09/03 13:10:56;;;;;;;5.03;4.40;;;17.70;75.40;;;;;;5092827;28;20085;-75
2022/09/03 13:13:28;;;;;;;4.05;3.65;;;17.60;74.20;;;;;;5094016;28;20066;-82
2022/09/03 13:16:08;;;;;;;4.05;3.75;;;17.50;74.40;;;;;;5094081;28;20016;-82
2022/09/03 13:18:53;;;;;;;5.25;4.72;;;17.60;74.80;;;;;;5092423;28;20021;-76
2022/09/03 13:21:40;;;;;;;3.65;3.35;;;17.70;74.80;;;;;;5093729;28;20358;-82
2022/09/03 13:24:35;;;;;;;5.30;4.30;;;17.90;75.60;;;;;;5092463;28;20028;-83